sensor_id;sensor_type;location;lat;lon;timestamp;pressure;altitude;pressure_sealevel;temperature;humidity
28354;BME280;15603;50.878;8.036;2023-05-09T00:01:26;146317.25;;;12.91;100.00
28354;BME280;15603;50.878;8.036;2023-05-09T00:03:57;146297.78;;;12.83;100.00
28354;BME280;15603;50.878;8.036;2023-05-09T00:06:25;146302.66;;;12.85;100.00
28354;BME280;15603;50.878;8.036;2023-05-09T00:08:54;146292.91;;;12.81;100.00
28354;BME280;15603;50.878;8.036;2023-05-09T00:11:21;146308.72;;;12.87;100.00
28354;BME280;15603;50.878;8.036;2023-05-09T00:13:49;146283.19;;;12.76;100.00
28354;BME280;15603;50.878;8.036;2023-05-09T00:16:17;146319.69;;;12.92;100.00
28354;BME280;15603;50.878;8.036;2023-05-09T00:18:44;146344.03;;;13.02;100.00
28354;BME280;15603;50.878;8.036;2023-05-09T00:21:11;146319.69;;;12.92;100.00
28354;BME280;15603;50.878;8.036;2023-05-09T00:23:38;146272.19;;;12.72;100.00
28354;BME280;15603;50.878;8.036;2023-05-09T00:26:05;146295.31;;;12.82;100.00
28354;BME280;15603;50.878;8.036;2023-05-09T00:28:32;146284.38;;;12.77;100.00
28354;BME280;15603;50.878;8.036;2023-05-09T00:30:59;146269.78;;;12.71;100.00
28354;BME280;15603;50.878;8.036;2023-05-09T00:33:27;146261.25;;;12.67;100.00
28354;BME280;15603;50.878;8.036;2023-05-09T00:35:54;146278.31;;;12.74;100.00
28354;BME280;15603;50.878;8.036;2023-05-09T00:38:22;146251.53;;;12.63;100.00
28354;BME280;15603;50.878;8.036;2023-05-09T00:40:49;146262.47;;;12.68;100.00
28354;BME280;15603;50.878;8.036;2023-05-09T00:43:16;146294.13;;;12.81;100.00
28354;BME280;15603;50.878;8.036;2023-05-09T00:45:44;146286.84;;;12.78;100.00
28354;BME280;15603;50.878;8.036;2023-05-09T00:48:11;146305.09;;;12.86;100.00
28354;BME280;15603;50.878;8.036;2023-05-09T00:50:39;146314.84;;;12.90;100.00
28354;BME280;15603;50.878;8.036;2023-05-09T00:53:07;146257.59;;;12.66;100.00
28354;BME280;15603;50.878;8.036;2023-05-09T00:55:34;146317.25;;;12.91;100.00
28354;BME280;15603;50.878;8.036;2023-05-09T00:58:02;146326.97;;;12.95;100.00
28354;BME280;15603;50.878;8.036;2023-05-09T01:00:29;146324.56;;;12.94;100.00
28354;BME280;15603;50.878;8.036;2023-05-09T01:02:57;146362.28;;;13.10;100.00
28354;BME280;15603;50.878;8.036;2023-05-09T01:05:31;146375.69;;;13.15;100.00
28354;BME280;15603;50.878;8.036;2023-05-09T01:08:26;146380.56;;;13.18;100.00
28354;BME280;15603;50.878;8.036;2023-05-09T01:11:03;146365.97;;;13.11;100.00
28354;BME280;15603;50.878;8.036;2023-05-09T01:14:00;146361.09;;;13.09;100.00
28354;BME280;15603;50.878;8.036;2023-05-09T01:22:39;146333.09;;;12.98;100.00
28354;BME280;15603;50.878;8.036;2023-05-09T01:27:49;146317.25;;;12.91;100.00
28354;BME280;15603;50.878;8.036;2023-05-09T01:30:19;146303.84;;;12.85;100.00
28354;BME280;15603;50.878;8.036;2023-05-09T01:32:48;146298.97;;;12.83;100.00
28354;BME280;15603;50.878;8.036;2023-05-09T01:35:19;146289.25;;;12.79;100.00
28354;BME280;15603;50.878;8.036;2023-05-09T01:37:48;146277.06;;;12.74;100.00
28354;BME280;15603;50.878;8.036;2023-05-09T01:40:19;146290.47;;;12.80;100.00
28354;BME280;15603;50.878;8.036;2023-05-09T01:42:55;146258.81;;;12.66;100.00
28354;BME280;15603;50.878;8.036;2023-05-09T01:45:24;146274.66;;;12.73;100.00
28354;BME280;15603;50.878;8.036;2023-05-09T01:47:53;146312.38;;;12.89;100.00
28354;BME280;15603;50.878;8.036;2023-05-09T01:50:21;146291.72;;;12.80;100.00
28354;BME280;15603;50.878;8.036;2023-05-09T01:52:52;146337.97;;;13.00;100.00
28354;BME280;15603;50.878;8.036;2023-05-09T01:55:20;146337.97;;;13.00;100.00
28354;BME280;15603;50.878;8.036;2023-05-09T01:57:49;146323.38;;;12.93;100.00
28354;BME280;15603;50.878;8.036;2023-05-09T02:00:17;146308.72;;;12.87;100.00
28354;BME280;15603;50.878;8.036;2023-05-09T02:02:45;146306.31;;;12.86;100.00
28354;BME280;15603;50.878;8.036;2023-05-09T02:05:15;146285.59;;;12.77;100.00
28354;BME280;15603;50.878;8.036;2023-05-09T02:07:46;146295.31;;;12.82;100.00
28354;BME280;15603;50.878;8.036;2023-05-09T02:10:14;146289.25;;;12.79;100.00
28354;BME280;15603;50.878;8.036;2023-05-09T02:12:41;146298.97;;;12.83;100.00
28354;BME280;15603;50.878;8.036;2023-05-09T02:15:09;146305.09;;;12.86;100.00
28354;BME280;15603;50.878;8.036;2023-05-09T02:17:39;146306.31;;;12.86;100.00
28354;BME280;15603;50.878;8.036;2023-05-09T02:20:08;146317.25;;;12.91;100.00
28354;BME280;15603;50.878;8.036;2023-05-09T02:22:40;146309.97;;;12.88;100.00
28354;BME280;15603;50.878;8.036;2023-05-09T02:25:10;146322.13;;;12.93;100.00
28354;BME280;15603;50.878;8.036;2023-05-09T02:27:38;146317.25;;;12.91;100.00
28354;BME280;15603;50.878;8.036;2023-05-09T02:30:09;146306.31;;;12.86;100.00
28354;BME280;15603;50.878;8.036;2023-05-09T02:32:38;146312.38;;;12.89;100.00
28354;BME280;15603;50.878;8.036;2023-05-09T02:35:08;146326.97;;;12.95;100.00
28354;BME280;15603;50.878;8.036;2023-05-09T02:37:36;146283.19;;;12.76;100.00
28354;BME280;15603;50.878;8.036;2023-05-09T02:40:06;146375.69;;;13.15;100.00
28354;BME280;15603;50.878;8.036;2023-05-09T02:42:34;146375.69;;;13.15;100.00
28354;BME280;15603;50.878;8.036;2023-05-09T02:45:02;146375.69;;;13.15;100.00
28354;BME280;15603;50.878;8.036;2023-05-09T02:47:29;146396.41;;;13.24;100.00
28354;BME280;15603;50.878;8.036;2023-05-09T02:49:57;146406.16;;;13.28;100.00
28354;BME280;15603;50.878;8.036;2023-05-09T02:52:24;146422.00;;;13.35;100.00
28354;BME280;15603;50.878;8.036;2023-05-09T02:54:52;146422.00;;;13.35;100.00
28354;BME280;15603;50.878;8.036;2023-05-09T02:57:19;146348.91;;;13.04;100.00
28354;BME280;15603;50.878;8.036;2023-05-09T02:59:47;146424.47;;;13.36;100.00
28354;BME280;15603;50.878;8.036;2023-05-09T03:02:14;146385.44;;;13.20;100.00
28354;BME280;15603;50.878;8.036;2023-05-09T03:04:42;146404.91;;;13.28;100.00
28354;BME280;15603;50.878;8.036;2023-05-09T03:07:09;146408.56;;;13.29;100.00
28354;BME280;15603;50.878;8.036;2023-05-09T03:09:36;146411.06;;;13.30;100.00
28354;BME280;15603;50.878;8.036;2023-05-09T03:12:07;146363.50;;;13.10;100.00
28354;BME280;15603;50.878;8.036;2023-05-09T03:14:35;146397.63;;;13.25;100.00
28354;BME280;15603;50.878;8.036;2023-05-09T03:17:02;146396.41;;;13.24;100.00
28354;BME280;15603;50.878;8.036;2023-05-09T03:19:33;146390.31;;;13.22;100.00
28354;BME280;15603;50.878;8.036;2023-05-09T03:22:00;146375.69;;;13.15;100.00
28354;BME280;15603;50.878;8.036;2023-05-09T03:24:30;146373.28;;;13.14;100.00
28354;BME280;15603;50.878;8.036;2023-05-09T03:26:57;146370.84;;;13.13;100.00
28354;BME280;15603;50.878;8.036;2023-05-09T03:29:24;146314.84;;;12.90;100.00
28354;BME280;15603;50.878;8.036;2023-05-09T03:31:53;146356.22;;;13.07;100.00
28354;BME280;15603;50.878;8.036;2023-05-09T03:34:20;146358.63;;;13.08;100.00
28354;BME280;15603;50.878;8.036;2023-05-09T03:36:48;146368.38;;;13.12;100.00
28354;BME280;15603;50.878;8.036;2023-05-09T03:39:15;146380.56;;;13.18;100.00
28354;BME280;15603;50.878;8.036;2023-05-09T03:41:45;146395.16;;;13.24;100.00
28354;BME280;15603;50.878;8.036;2023-05-09T03:44:12;146401.28;;;13.26;100.00
28354;BME280;15603;50.878;8.036;2023-05-09T03:46:39;146395.16;;;13.24;100.00
28354;BME280;15603;50.878;8.036;2023-05-09T03:49:07;146413.47;;;13.31;100.00
28354;BME280;15603;50.878;8.036;2023-05-09T03:51:35;146431.75;;;13.39;100.00
28354;BME280;15603;50.878;8.036;2023-05-09T03:54:06;146437.88;;;13.42;100.00
28354;BME280;15603;50.878;8.036;2023-05-09T03:56:34;146443.94;;;13.44;100.00
28354;BME280;15603;50.878;8.036;2023-05-09T03:59:01;146442.72;;;13.44;100.00
28354;BME280;15603;50.878;8.036;2023-05-09T04:01:29;146482.94;;;13.61;100.00
28354;BME280;15603;50.878;8.036;2023-05-09T04:03:58;146493.88;;;13.65;100.00
28354;BME280;15603;50.878;8.036;2023-05-09T04:06:27;146510.94;;;13.72;100.00
28354;BME280;15603;50.878;8.036;2023-05-09T04:08:57;146461.00;;;13.51;100.00
28354;BME280;15603;50.878;8.036;2023-05-09T04:11:24;146526.75;;;13.79;100.00
28354;BME280;15603;50.878;8.036;2023-05-09T04:13:51;146535.28;;;13.83;100.00
28354;BME280;15603;50.878;8.036;2023-05-09T04:16:26;146546.22;;;13.87;100.00
28354;BME280;15603;50.878;8.036;2023-05-09T04:18:53;146565.75;;;13.96;100.00
28354;BME280;15603;50.878;8.036;2023-05-09T04:21:20;146586.44;;;14.04;100.00
28354;BME280;15603;50.878;8.036;2023-05-09T04:23:49;146604.72;;;14.12;100.00
28354;BME280;15603;50.878;8.036;2023-05-09T04:26:21;146614.47;;;14.16;100.00
28354;BME280;15603;50.878;8.036;2023-05-09T04:28:51;146616.91;;;14.17;100.00
28354;BME280;15603;50.878;8.036;2023-05-09T04:31:18;146587.66;;;14.05;100.00
28354;BME280;15603;50.878;8.036;2023-05-09T04:33:49;146593.78;;;14.07;100.00
28354;BME280;15603;50.878;8.036;2023-05-09T04:36:17;146591.31;;;14.06;100.00
28354;BME280;15603;50.878;8.036;2023-05-09T04:38:44;146562.09;;;13.94;100.00
28354;BME280;15603;50.878;8.036;2023-05-09T04:41:16;146523.09;;;13.78;100.00
28354;BME280;15603;50.878;8.036;2023-05-09T04:43:43;146551.09;;;13.89;100.00
28354;BME280;15603;50.878;8.036;2023-05-09T04:46:11;146568.16;;;13.97;100.00
28354;BME280;15603;50.878;8.036;2023-05-09T04:48:38;146541.38;;;13.85;100.00
28354;BME280;15603;50.878;8.036;2023-05-09T04:51:05;146605.94;;;14.12;100.00
28354;BME280;15603;50.878;8.036;2023-05-09T04:53:32;146588.91;;;14.05;100.00
28354;BME280;15603;50.878;8.036;2023-05-09T04:56:00;146580.38;;;14.02;100.00
28354;BME280;15603;50.878;8.036;2023-05-09T04:58:28;146599.84;;;14.10;100.00
28354;BME280;15603;50.878;8.036;2023-05-09T05:00:56;146609.59;;;14.14;100.00
28354;BME280;15603;50.878;8.036;2023-05-09T05:03:23;146612.03;;;14.15;100.00
28354;BME280;15603;50.878;8.036;2023-05-09T05:05:50;146616.91;;;14.17;100.00
28354;BME280;15603;50.878;8.036;2023-05-09T05:08:17;146604.72;;;14.12;100.00
28354;BME280;15603;50.878;8.036;2023-05-09T05:10:44;146582.78;;;14.03;100.00
28354;BME280;15603;50.878;8.036;2023-05-09T05:13:14;146660.75;;;14.36;100.00
28354;BME280;15603;50.878;8.036;2023-05-09T05:15:44;146662.00;;;14.36;100.00
28354;BME280;15603;50.878;8.036;2023-05-09T05:18:12;146688.81;;;14.47;100.00
28354;BME280;15603;50.878;8.036;2023-05-09T05:20:40;146731.50;;;14.65;100.00
28354;BME280;15603;50.878;8.036;2023-05-09T05:23:08;146724.19;;;14.62;100.00
28354;BME280;15603;50.878;8.036;2023-05-09T05:25:35;146738.84;;;14.68;100.00
28354;BME280;15603;50.878;8.036;2023-05-09T05:28:02;146780.28;;;14.86;100.00
28354;BME280;15603;50.878;8.036;2023-05-09T05:30:29;146787.56;;;14.89;100.00
28354;BME280;15603;50.878;8.036;2023-05-09T05:33:00;146811.97;;;14.99;100.00
28354;BME280;15603;50.878;8.036;2023-05-09T05:35:27;146832.69;;;15.08;100.00
28354;BME280;15603;50.878;8.036;2023-05-09T05:37:56;146838.75;;;15.10;100.00
28354;BME280;15603;50.878;8.036;2023-05-09T05:40:23;146870.47;;;15.24;100.00
28354;BME280;15603;50.878;8.036;2023-05-09T05:42:52;146824.13;;;15.04;100.00
28354;BME280;15603;50.878;8.036;2023-05-09T05:45:20;146872.91;;;15.25;100.00
28354;BME280;15603;50.878;8.036;2023-05-09T05:47:51;146881.47;;;15.28;100.00
28354;BME280;15603;50.878;8.036;2023-05-09T05:50:19;146871.72;;;15.24;100.00
28354;BME280;15603;50.878;8.036;2023-05-09T05:52:47;146909.50;;;15.40;100.00
28354;BME280;15603;50.878;8.036;2023-05-09T05:55:16;146894.88;;;15.34;100.00
28354;BME280;15603;50.878;8.036;2023-05-09T05:57:44;146933.88;;;15.50;100.00
28354;BME280;15603;50.878;8.036;2023-05-09T06:00:14;146960.72;;;15.62;100.00
28354;BME280;15603;50.878;8.036;2023-05-09T06:02:53;146940.00;;;15.53;100.00
28354;BME280;15603;50.878;8.036;2023-05-09T06:05:26;146933.88;;;15.50;100.00
28354;BME280;15603;50.878;8.036;2023-05-09T06:07:53;146924.13;;;15.46;100.00
28354;BME280;15603;50.878;8.036;2023-05-09T06:10:21;146919.25;;;15.44;100.00
28354;BME280;15603;50.878;8.036;2023-05-09T06:12:48;146899.75;;;15.36;100.00
28354;BME280;15603;50.878;8.036;2023-05-09T06:15:15;147004.69;;;15.80;100.00
28354;BME280;15603;50.878;8.036;2023-05-09T06:17:45;146979.00;;;15.69;100.00
28354;BME280;15603;50.878;8.036;2023-05-09T06:20:12;147013.19;;;15.84;100.00
28354;BME280;15603;50.878;8.036;2023-05-09T06:22:39;147031.47;;;15.92;100.00
28354;BME280;15603;50.878;8.036;2023-05-09T06:25:07;147048.56;;;15.99;100.00
28354;BME280;15603;50.878;8.036;2023-05-09T06:27:37;147094.91;;;16.18;100.00
28354;BME280;15603;50.878;8.036;2023-05-09T06:30:05;147068.06;;;16.07;100.00
28354;BME280;15603;50.878;8.036;2023-05-09T06:32:51;147033.94;;;15.93;100.00
28354;BME280;15603;50.878;8.036;2023-05-09T06:35:18;147043.69;;;15.97;100.00
28354;BME280;15603;50.878;8.036;2023-05-09T06:37:45;147046.16;;;15.98;100.00
28354;BME280;15603;50.878;8.036;2023-05-09T06:40:15;147051.03;;;16.00;100.00
28354;BME280;15603;50.878;8.036;2023-05-09T06:42:43;147058.31;;;16.03;100.00
28354;BME280;15603;50.878;8.036;2023-05-09T06:45:10;147009.56;;;15.82;100.00
28354;BME280;15603;50.878;8.036;2023-05-09T06:47:37;147087.63;;;16.15;100.00
28354;BME280;15603;50.878;8.036;2023-05-09T06:50:05;147054.69;;;16.01;100.00
28354;BME280;15603;50.878;8.036;2023-05-09T06:52:32;147074.22;;;16.09;100.00
28354;BME280;15603;50.878;8.036;2023-05-09T06:54:59;147094.91;;;16.18;100.00
28354;BME280;15603;50.878;8.036;2023-05-09T06:57:26;147059.56;;;16.03;100.00
28354;BME280;15603;50.878;8.036;2023-05-09T06:59:54;147055.91;;;16.02;100.00
28354;BME280;15603;50.878;8.036;2023-05-09T07:02:21;147027.84;;;15.90;100.00
28354;BME280;15603;50.878;8.036;2023-05-09T07:04:48;147031.47;;;15.92;100.00
28354;BME280;15603;50.878;8.036;2023-05-09T07:07:15;147008.31;;;15.82;100.00
28354;BME280;15603;50.878;8.036;2023-05-09T07:09:43;147002.22;;;15.79;100.00
28354;BME280;15603;50.878;8.036;2023-05-09T07:12:10;147026.59;;;15.89;100.00
28354;BME280;15603;50.878;8.036;2023-05-09T07:14:37;147037.59;;;15.94;100.00
28354;BME280;15603;50.878;8.036;2023-05-09T07:17:04;147075.41;;;16.10;100.00
28354;BME280;15603;50.878;8.036;2023-05-09T07:19:48;147070.53;;;16.08;100.00
28354;BME280;15603;50.878;8.036;2023-05-09T07:22:15;147090.03;;;16.16;100.00
28354;BME280;15603;50.878;8.036;2023-05-09T07:24:42;147110.81;;;16.25;100.00
28354;BME280;15603;50.878;8.036;2023-05-09T07:27:10;147140.06;;;16.37;100.00
28354;BME280;15603;50.878;8.036;2023-05-09T07:29:37;147092.50;;;16.17;100.00
28354;BME280;15603;50.878;8.036;2023-05-09T07:32:04;147142.53;;;16.38;100.00
28354;BME280;15603;50.878;8.036;2023-05-09T07:34:32;147164.50;;;16.47;100.00
28354;BME280;15603;50.878;8.036;2023-05-09T07:36:59;147160.84;;;16.46;100.00
28354;BME280;15603;50.878;8.036;2023-05-09T07:39:26;147086.38;;;16.15;100.00
28354;BME280;15603;50.878;8.036;2023-05-09T07:41:53;147177.88;;;16.53;100.00
28354;BME280;15603;50.878;8.036;2023-05-09T07:44:20;147226.72;;;16.74;100.00
28354;BME280;15603;50.878;8.036;2023-05-09T07:46:47;147259.72;;;16.87;100.00
28354;BME280;15603;50.878;8.036;2023-05-09T07:49:14;147290.22;;;17.00;100.00
28354;BME280;15603;50.878;8.036;2023-05-09T07:51:41;147319.50;;;17.13;100.00
28354;BME280;15603;50.878;8.036;2023-05-09T07:54:08;147331.72;;;17.18;100.00
28354;BME280;15603;50.878;8.036;2023-05-09T07:56:36;147326.84;;;17.16;100.00
28354;BME280;15603;50.878;8.036;2023-05-09T07:59:03;147311.00;;;17.09;100.00
28354;BME280;15603;50.878;8.036;2023-05-09T08:01:30;147314.63;;;17.11;100.00
28354;BME280;15603;50.878;8.036;2023-05-09T08:03:57;147329.31;;;17.17;100.00
28354;BME280;15603;50.878;8.036;2023-05-09T08:06:25;147295.13;;;17.02;100.00
28354;BME280;15603;50.878;8.036;2023-05-09T08:08:52;147330.53;;;17.17;100.00
28354;BME280;15603;50.878;8.036;2023-05-09T08:11:19;147276.81;;;16.95;100.00
28354;BME280;15603;50.878;8.036;2023-05-09T08:13:46;147343.97;;;17.23;100.00
28354;BME280;15603;50.878;8.036;2023-05-09T08:16:13;147354.94;;;17.27;100.00
28354;BME280;15603;50.878;8.036;2023-05-09T08:18:43;147385.47;;;17.40;100.00
28354;BME280;15603;50.878;8.036;2023-05-09T08:21:10;147365.94;;;17.32;100.00
28354;BME280;15603;50.878;8.036;2023-05-09T08:23:38;147357.38;;;17.29;100.00
28354;BME280;15603;50.878;8.036;2023-05-09T08:26:06;147412.34;;;17.52;100.00
28354;BME280;15603;50.878;8.036;2023-05-09T08:28:33;147439.22;;;17.63;100.00
28354;BME280;15603;50.878;8.036;2023-05-09T08:31:01;147422.09;;;17.56;100.00
28354;BME280;15603;50.878;8.036;2023-05-09T08:33:28;147398.91;;;17.46;100.00
28354;BME280;15603;50.878;8.036;2023-05-09T08:35:55;147406.19;;;17.49;100.00
28354;BME280;15603;50.878;8.036;2023-05-09T08:38:22;147392.75;;;17.43;100.00
28354;BME280;15603;50.878;8.036;2023-05-09T08:40:50;147353.72;;;17.27;100.00
28354;BME280;15603;50.878;8.036;2023-05-09T08:43:18;147341.50;;;17.22;100.00
28354;BME280;15603;50.878;8.036;2023-05-09T08:45:50;147397.66;;;17.45;100.00
28354;BME280;15603;50.878;8.036;2023-05-09T08:48:18;147429.41;;;17.59;100.00
28354;BME280;15603;50.878;8.036;2023-05-09T08:50:45;147535.72;;;18.03;100.00
28354;BME280;15603;50.878;8.036;2023-05-09T08:53:13;147605.34;;;18.33;100.00
28354;BME280;15603;50.878;8.036;2023-05-09T08:55:40;147749.56;;;18.93;97.89
28354;BME280;15603;50.878;8.036;2023-05-09T08:58:12;147695.78;;;18.71;98.55
28354;BME280;15603;50.878;8.036;2023-05-09T09:00:40;147694.53;;;18.70;99.34
28354;BME280;15603;50.878;8.036;2023-05-09T09:03:07;147720.25;;;18.81;98.80
28354;BME280;15603;50.878;8.036;2023-05-09T09:05:36;147703.06;;;18.74;98.99
28354;BME280;15603;50.878;8.036;2023-05-09T09:08:08;147737.38;;;18.88;98.32
28354;BME280;15603;50.878;8.036;2023-05-09T09:10:39;147786.22;;;19.09;94.81
28354;BME280;15603;50.878;8.036;2023-05-09T09:13:14;147745.88;;;18.92;95.18
28354;BME280;15603;50.878;8.036;2023-05-09T09:15:42;147685.97;;;18.67;97.12
28354;BME280;15603;50.878;8.036;2023-05-09T09:18:15;147590.69;;;18.27;98.75
28354;BME280;15603;50.878;8.036;2023-05-09T09:20:47;147659.13;;;18.55;100.00
28354;BME280;15603;50.878;8.036;2023-05-09T09:23:18;147649.31;;;18.51;99.08
28354;BME280;15603;50.878;8.036;2023-05-09T09:25:46;147617.53;;;18.38;98.36
28354;BME280;15603;50.878;8.036;2023-05-09T09:28:14;147725.13;;;18.83;97.20
28354;BME280;15603;50.878;8.036;2023-05-09T09:30:47;147797.25;;;19.13;95.40
28354;BME280;15603;50.878;8.036;2023-05-09T09:33:21;147897.50;;;19.55;93.51
28354;BME280;15603;50.878;8.036;2023-05-09T09:35:50;147950.09;;;19.77;93.00
28354;BME280;15603;50.878;8.036;2023-05-09T09:38:18;147978.22;;;19.89;92.40
28354;BME280;15603;50.878;8.036;2023-05-09T09:40:55;147988.00;;;19.93;91.16
28354;BME280;15603;50.878;8.036;2023-05-09T09:43:30;147893.81;;;19.54;92.68
28354;BME280;15603;50.878;8.036;2023-05-09T09:46:01;147913.38;;;19.62;91.64
28354;BME280;15603;50.878;8.036;2023-05-09T09:48:30;147896.25;;;19.55;91.60
28354;BME280;15603;50.878;8.036;2023-05-09T09:51:09;147904.81;;;19.58;90.66
28354;BME280;15603;50.878;8.036;2023-05-09T09:53:41;147901.13;;;19.57;92.54
28354;BME280;15603;50.878;8.036;2023-05-09T09:56:09;147879.16;;;19.48;92.10
28354;BME280;15603;50.878;8.036;2023-05-09T09:58:36;147907.28;;;19.59;91.50
28354;BME280;15603;50.878;8.036;2023-05-09T10:01:08;147930.50;;;19.69;91.36
28354;BME280;15603;50.878;8.036;2023-05-09T10:03:37;147928.03;;;19.68;89.99
28354;BME280;15603;50.878;8.036;2023-05-09T10:06:11;148019.78;;;20.07;91.66
28354;BME280;15603;50.878;8.036;2023-05-09T10:08:39;148095.63;;;20.38;89.06
28354;BME280;15603;50.878;8.036;2023-05-09T10:11:08;148143.31;;;20.58;88.10
28354;BME280;15603;50.878;8.036;2023-05-09T10:13:36;148112.72;;;20.46;86.99
28354;BME280;15603;50.878;8.036;2023-05-09T10:16:04;148077.28;;;20.31;86.73
28354;BME280;15603;50.878;8.036;2023-05-09T10:18:32;148072.41;;;20.29;88.06
28354;BME280;15603;50.878;8.036;2023-05-09T10:21:00;147896.25;;;19.55;90.55
28354;BME280;15603;50.878;8.036;2023-05-09T10:23:30;147871.81;;;19.45;92.20
28354;BME280;15603;50.878;8.036;2023-05-09T10:26:08;147798.47;;;19.14;93.52
28354;BME280;15603;50.878;8.036;2023-05-09T10:28:39;147824.16;;;19.25;94.13
28354;BME280;15603;50.878;8.036;2023-05-09T10:31:26;147950.09;;;19.77;92.89
28354;BME280;15603;50.878;8.036;2023-05-09T10:33:54;147999.03;;;19.98;91.95
28354;BME280;15603;50.878;8.036;2023-05-09T10:36:24;148013.69;;;20.04;91.70
28354;BME280;15603;50.878;8.036;2023-05-09T10:38:53;147981.88;;;19.91;90.32
28354;BME280;15603;50.878;8.036;2023-05-09T10:41:21;147932.91;;;19.70;92.18
28354;BME280;15603;50.878;8.036;2023-05-09T10:43:49;147930.50;;;19.69;92.03
28354;BME280;15603;50.878;8.036;2023-05-09T10:46:17;147849.78;;;19.35;93.61
28354;BME280;15603;50.878;8.036;2023-05-09T10:48:46;147876.69;;;19.47;93.32
28354;BME280;15603;50.878;8.036;2023-05-09T10:51:14;147864.44;;;19.41;92.82
28354;BME280;15603;50.878;8.036;2023-05-09T10:53:44;147788.69;;;19.10;96.67
28354;BME280;15603;50.878;8.036;2023-05-09T10:56:31;147712.84;;;18.78;95.89
28354;BME280;15603;50.878;8.036;2023-05-09T10:58:59;147522.28;;;17.98;100.00
28354;BME280;15603;50.878;8.036;2023-05-09T11:04:07;147484.34;;;17.82;100.00
28354;BME280;15603;50.878;8.036;2023-05-09T11:12:00;147455.06;;;17.70;100.00
28354;BME280;15603;50.878;8.036;2023-05-09T11:14:31;147473.38;;;17.77;100.00
28354;BME280;15603;50.878;8.036;2023-05-09T11:17:01;147648.09;;;18.51;100.00
28354;BME280;15603;50.878;8.036;2023-05-09T11:22:22;147820.47;;;19.23;97.61
28354;BME280;15603;50.878;8.036;2023-05-09T11:27:27;147838.81;;;19.31;97.06
28354;BME280;15603;50.878;8.036;2023-05-09T11:29:58;147819.22;;;19.22;96.77
28354;BME280;15603;50.878;8.036;2023-05-09T11:32:31;147898.69;;;19.56;96.74
28354;BME280;15603;50.878;8.036;2023-05-09T11:37:43;147884.03;;;19.50;97.08
28354;BME280;15603;50.878;8.036;2023-05-09T11:40:13;147820.47;;;19.23;96.08
28354;BME280;15603;50.878;8.036;2023-05-09T11:42:42;147820.47;;;19.23;95.47
28354;BME280;15603;50.878;8.036;2023-05-09T11:45:11;147742.25;;;18.90;95.44
28354;BME280;15603;50.878;8.036;2023-05-09T11:47:40;147803.34;;;19.16;96.75
28354;BME280;15603;50.878;8.036;2023-05-09T11:50:08;147788.69;;;19.10;95.55
28354;BME280;15603;50.878;8.036;2023-05-09T11:52:36;147737.38;;;18.88;96.81
28354;BME280;15603;50.878;8.036;2023-05-09T11:55:09;147722.66;;;18.82;96.84
28354;BME280;15603;50.878;8.036;2023-05-09T11:57:40;147739.78;;;18.89;98.08
28354;BME280;15603;50.878;8.036;2023-05-09T12:00:08;147715.31;;;18.79;96.18
28354;BME280;15603;50.878;8.036;2023-05-09T12:02:36;147731.22;;;18.86;97.32
28354;BME280;15603;50.878;8.036;2023-05-09T12:05:09;147704.28;;;18.74;97.18
28354;BME280;15603;50.878;8.036;2023-05-09T12:07:36;147730.00;;;18.85;95.56
28354;BME280;15603;50.878;8.036;2023-05-09T12:10:06;147725.13;;;18.83;97.48
28354;BME280;15603;50.878;8.036;2023-05-09T12:12:35;147788.69;;;19.10;96.59
28354;BME280;15603;50.878;8.036;2023-05-09T12:15:06;147695.78;;;18.71;96.98
28354;BME280;15603;50.878;8.036;2023-05-09T12:17:34;147717.78;;;18.80;97.27
28354;BME280;15603;50.878;8.036;2023-05-09T12:20:02;147754.44;;;18.95;97.94
28354;BME280;15603;50.878;8.036;2023-05-09T12:22:33;147772.78;;;19.03;97.09
28354;BME280;15603;50.878;8.036;2023-05-09T12:25:04;147891.34;;;19.53;95.80
28354;BME280;15603;50.878;8.036;2023-05-09T12:27:37;147876.69;;;19.47;95.27
28354;BME280;15603;50.878;8.036;2023-05-09T12:30:05;147860.81;;;19.40;95.75
28354;BME280;15603;50.878;8.036;2023-05-09T12:32:41;147818.00;;;19.22;96.20
28354;BME280;15603;50.878;8.036;2023-05-09T12:35:09;147788.69;;;19.10;96.67
28354;BME280;15603;50.878;8.036;2023-05-09T12:37:37;147698.19;;;18.72;97.71
28354;BME280;15603;50.878;8.036;2023-05-09T12:40:08;147612.66;;;18.36;98.98
28354;BME280;15603;50.878;8.036;2023-05-09T12:42:38;147661.53;;;18.56;98.81
28354;BME280;15603;50.878;8.036;2023-05-09T12:45:09;147693.31;;;18.70;97.55
28354;BME280;15603;50.878;8.036;2023-05-09T12:47:37;147756.91;;;18.96;97.04
28354;BME280;15603;50.878;8.036;2023-05-09T12:50:05;147826.56;;;19.26;96.41
28354;BME280;15603;50.878;8.036;2023-05-09T12:52:34;147830.25;;;19.27;96.23
28354;BME280;15603;50.878;8.036;2023-05-09T12:55:11;147796.00;;;19.13;96.44
28354;BME280;15603;50.878;8.036;2023-05-09T12:57:40;147869.34;;;19.43;93.98
28354;BME280;15603;50.878;8.036;2023-05-09T13:00:08;147959.88;;;19.81;94.81
28354;BME280;15603;50.878;8.036;2023-05-09T13:02:37;147995.34;;;19.96;94.07
28354;BME280;15603;50.878;8.036;2023-05-09T13:07:39;148167.81;;;20.69;90.99
28354;BME280;15603;50.878;8.036;2023-05-09T13:10:17;148183.75;;;20.75;88.02
28354;BME280;15603;50.878;8.036;2023-05-09T13:12:47;148226.56;;;20.93;88.53
28354;BME280;15603;50.878;8.036;2023-05-09T13:15:15;148197.22;;;20.81;87.57
28354;BME280;15603;50.878;8.036;2023-05-09T13:17:43;148270.63;;;21.12;87.25
28354;BME280;15603;50.878;8.036;2023-05-09T13:20:10;148325.69;;;21.35;85.07